sensor_id;sensor_type;location;lat;lon;timestamp;P1;durP1;ratioP1;P2;durP2;ratioP2
140;SDS011;65;48.778;9.160;2023-02-03T00:00:51;1.77;;;1.00;;
140;SDS011;65;48.778;9.160;2023-02-03T00:03:37;2.78;;;1.20;;
140;SDS011;65;48.778;9.160;2023-02-03T00:06:22;2.85;;;1.40;;
140;SDS011;65;48.778;9.160;2023-02-03T00:09:09;1.98;;;1.20;;
140;SDS011;65;48.778;9.160;2023-02-03T00:11:55;3.20;;;1.25;;
140;SDS011;65;48.778;9.160;2023-02-03T00:14:40;4.35;;;1.17;;
140;SDS011;65;48.778;9.160;2023-02-03T00:17:26;1.73;;;1.08;;
140;SDS011;65;48.778;9.160;2023-02-03T00:20:12;1.10;;;0.85;;
140;SDS011;65;48.778;9.160;2023-02-03T00:23:08;2.58;;;1.08;;
140;SDS011;65;48.778;9.160;2023-02-03T00:25:55;1.73;;;1.00;;
140;SDS011;65;48.778;9.160;2023-02-03T00:28:41;3.42;;;1.02;;
140;SDS011;65;48.778;9.160;2023-02-03T00:31:27;1.45;;;0.82;;
140;SDS011;65;48.778;9.160;2023-02-03T00:34:12;2.97;;;0.80;;
140;SDS011;65;48.778;9.160;2023-02-03T00:36:58;1.67;;;1.00;;
140;SDS011;65;48.778;9.160;2023-02-03T00:39:44;3.40;;;1.10;;
140;SDS011;65;48.778;9.160;2023-02-03T00:42:30;3.35;;;0.95;;
140;SDS011;65;48.778;9.160;2023-02-03T00:45:16;2.05;;;0.90;;
140;SDS011;65;48.778;9.160;2023-02-03T00:48:02;1.15;;;0.80;;
140;SDS011;65;48.778;9.160;2023-02-03T00:50:49;2.47;;;0.98;;
140;SDS011;65;48.778;9.160;2023-02-03T00:53:34;1.33;;;0.80;;
140;SDS011;65;48.778;9.160;2023-02-03T00:56:20;1.25;;;0.98;;
140;SDS011;65;48.778;9.160;2023-02-03T00:59:06;2.45;;;1.00;;
140;SDS011;65;48.778;9.160;2023-02-03T01:01:52;1.85;;;1.10;;
140;SDS011;65;48.778;9.160;2023-02-03T01:04:37;2.88;;;1.30;;
140;SDS011;65;48.778;9.160;2023-02-03T01:07:23;3.13;;;1.33;;
140;SDS011;65;48.778;9.160;2023-02-03T01:10:09;2.35;;;1.20;;
140;SDS011;65;48.778;9.160;2023-02-03T01:12:55;1.90;;;0.98;;
140;SDS011;65;48.778;9.160;2023-02-03T01:15:44;1.42;;;0.95;;
140;SDS011;65;48.778;9.160;2023-02-03T01:18:32;1.13;;;0.82;;
140;SDS011;65;48.778;9.160;2023-02-03T01:21:18;2.63;;;1.02;;
140;SDS011;65;48.778;9.160;2023-02-03T01:24:06;1.30;;;0.95;;
140;SDS011;65;48.778;9.160;2023-02-03T01:26:51;1.95;;;1.15;;
140;SDS011;65;48.778;9.160;2023-02-03T01:29:37;2.78;;;1.13;;
140;SDS011;65;48.778;9.160;2023-02-03T01:32:23;1.70;;;1.08;;
140;SDS011;65;48.778;9.160;2023-02-03T01:35:08;2.72;;;1.20;;
140;SDS011;65;48.778;9.160;2023-02-03T01:37:54;2.55;;;0.90;;
140;SDS011;65;48.778;9.160;2023-02-03T01:40:43;2.80;;;1.20;;
140;SDS011;65;48.778;9.160;2023-02-03T01:43:39;2.20;;;1.00;;
140;SDS011;65;48.778;9.160;2023-02-03T01:46:28;1.92;;;1.00;;
140;SDS011;65;48.778;9.160;2023-02-03T01:49:34;1.25;;;1.00;;
140;SDS011;65;48.778;9.160;2023-02-03T01:52:21;2.10;;;1.25;;
140;SDS011;65;48.778;9.160;2023-02-03T01:55:09;2.20;;;1.20;;
140;SDS011;65;48.778;9.160;2023-02-03T01:57:59;1.83;;;1.20;;
140;SDS011;65;48.778;9.160;2023-02-03T02:00:49;2.70;;;1.20;;
140;SDS011;65;48.778;9.160;2023-02-03T02:03:41;1.58;;;1.10;;
140;SDS011;65;48.778;9.160;2023-02-03T02:06:32;2.90;;;1.50;;
140;SDS011;65;48.778;9.160;2023-02-03T02:09:18;2.10;;;1.17;;
140;SDS011;65;48.778;9.160;2023-02-03T02:12:04;2.58;;;1.10;;
140;SDS011;65;48.778;9.160;2023-02-03T02:14:50;2.50;;;1.33;;
140;SDS011;65;48.778;9.160;2023-02-03T02:21:08;2.05;;;1.30;;
140;SDS011;65;48.778;9.160;2023-02-03T02:26:44;3.00;;;1.48;;
140;SDS011;65;48.778;9.160;2023-02-03T02:36:27;5.20;;;1.50;;
140;SDS011;65;48.778;9.160;2023-02-03T02:39:36;4.90;;;1.60;;
140;SDS011;65;48.778;9.160;2023-02-03T02:42:31;3.25;;;1.48;;
140;SDS011;65;48.778;9.160;2023-02-03T02:45:31;4.25;;;1.40;;
140;SDS011;65;48.778;9.160;2023-02-03T02:51:20;4.35;;;1.60;;
140;SDS011;65;48.778;9.160;2023-02-03T02:54:07;4.45;;;1.50;;
140;SDS011;65;48.778;9.160;2023-02-03T02:57:00;4.13;;;1.70;;
140;SDS011;65;48.778;9.160;2023-02-03T02:59:49;2.88;;;1.42;;
140;SDS011;65;48.778;9.160;2023-02-03T03:02:35;4.20;;;1.65;;
140;SDS011;65;48.778;9.160;2023-02-03T03:05:21;3.55;;;1.52;;
140;SDS011;65;48.778;9.160;2023-02-03T03:08:08;5.20;;;1.50;;
140;SDS011;65;48.778;9.160;2023-02-03T03:10:57;4.25;;;1.60;;
140;SDS011;65;48.778;9.160;2023-02-03T03:13:47;4.70;;;1.23;;
140;SDS011;65;48.778;9.160;2023-02-03T03:16:36;3.03;;;1.45;;
140;SDS011;65;48.778;9.160;2023-02-03T03:19:24;5.15;;;2.00;;
140;SDS011;65;48.778;9.160;2023-02-03T03:22:16;1.70;;;1.20;;
140;SDS011;65;48.778;9.160;2023-02-03T03:25:08;3.05;;;1.40;;
140;SDS011;65;48.778;9.160;2023-02-03T03:28:00;2.10;;;1.30;;
140;SDS011;65;48.778;9.160;2023-02-03T03:30:50;2.90;;;1.50;;
140;SDS011;65;48.778;9.160;2023-02-03T03:33:35;1.85;;;1.40;;
140;SDS011;65;48.778;9.160;2023-02-03T03:36:26;2.67;;;1.08;;
140;SDS011;65;48.778;9.160;2023-02-03T03:39:29;2.47;;;1.30;;
140;SDS011;65;48.778;9.160;2023-02-03T03:42:23;2.88;;;1.20;;
140;SDS011;65;48.778;9.160;2023-02-03T03:48:57;3.33;;;0.95;;
140;SDS011;65;48.778;9.160;2023-02-03T03:51:47;2.80;;;0.88;;
140;SDS011;65;48.778;9.160;2023-02-03T03:54:36;3.05;;;1.17;;
140;SDS011;65;48.778;9.160;2023-02-03T03:57:25;2.70;;;1.05;;
140;SDS011;65;48.778;9.160;2023-02-03T04:00:24;2.38;;;1.00;;
140;SDS011;65;48.778;9.160;2023-02-03T04:03:16;1.40;;;0.80;;
140;SDS011;65;48.778;9.160;2023-02-03T04:06:06;2.10;;;1.00;;
140;SDS011;65;48.778;9.160;2023-02-03T04:08:52;1.02;;;0.70;;
140;SDS011;65;48.778;9.160;2023-02-03T04:11:37;1.23;;;0.63;;
140;SDS011;65;48.778;9.160;2023-02-03T04:14:42;0.70;;;0.70;;
140;SDS011;65;48.778;9.160;2023-02-03T04:17:27;0.65;;;0.60;;
140;SDS011;65;48.778;9.160;2023-02-03T04:20:13;0.50;;;0.50;;
140;SDS011;65;48.778;9.160;2023-02-03T04:22:59;2.10;;;0.80;;
140;SDS011;65;48.778;9.160;2023-02-03T04:25:45;0.80;;;0.68;;
140;SDS011;65;48.778;9.160;2023-02-03T04:28:31;0.63;;;0.60;;
140;SDS011;65;48.778;9.160;2023-02-03T04:31:18;2.25;;;0.90;;
140;SDS011;65;48.778;9.160;2023-02-03T04:34:04;1.33;;;0.60;;
140;SDS011;65;48.778;9.160;2023-02-03T04:36:50;1.23;;;0.93;;
140;SDS011;65;48.778;9.160;2023-02-03T04:39:36;6.78;;;1.05;;
140;SDS011;65;48.778;9.160;2023-02-03T04:42:22;1.30;;;0.80;;
140;SDS011;65;48.778;9.160;2023-02-03T04:45:09;1.02;;;0.90;;
140;SDS011;65;48.778;9.160;2023-02-03T04:47:56;0.80;;;0.80;;
140;SDS011;65;48.778;9.160;2023-02-03T04:50:42;3.17;;;1.60;;
140;SDS011;65;48.778;9.160;2023-02-03T04:53:27;2.80;;;1.42;;
140;SDS011;65;48.778;9.160;2023-02-03T04:56:14;2.28;;;1.33;;
140;SDS011;65;48.778;9.160;2023-02-03T04:59:00;2.53;;;1.20;;
140;SDS011;65;48.778;9.160;2023-02-03T05:01:46;1.15;;;1.05;;
140;SDS011;65;48.778;9.160;2023-02-03T05:04:32;2.10;;;0.98;;
140;SDS011;65;48.778;9.160;2023-02-03T05:07:18;1.15;;;1.00;;
140;SDS011;65;48.778;9.160;2023-02-03T05:10:04;1.05;;;0.90;;
140;SDS011;65;48.778;9.160;2023-02-03T05:12:50;1.38;;;1.05;;
140;SDS011;65;48.778;9.160;2023-02-03T05:15:35;2.83;;;1.10;;
140;SDS011;65;48.778;9.160;2023-02-03T05:18:21;3.97;;;1.20;;
140;SDS011;65;48.778;9.160;2023-02-03T05:21:07;1.75;;;1.10;;
140;SDS011;65;48.778;9.160;2023-02-03T05:23:53;2.95;;;1.17;;
140;SDS011;65;48.778;9.160;2023-02-03T05:26:38;2.15;;;1.20;;
140;SDS011;65;48.778;9.160;2023-02-03T05:29:24;3.88;;;1.13;;
140;SDS011;65;48.778;9.160;2023-02-03T05:32:10;2.05;;;1.25;;
140;SDS011;65;48.778;9.160;2023-02-03T05:34:55;1.58;;;0.95;;
140;SDS011;65;48.778;9.160;2023-02-03T05:37:44;1.63;;;1.10;;
140;SDS011;65;48.778;9.160;2023-02-03T05:40:30;3.63;;;1.50;;
140;SDS011;65;48.778;9.160;2023-02-03T05:43:34;1.52;;;1.17;;
140;SDS011;65;48.778;9.160;2023-02-03T05:46:20;2.65;;;1.50;;
140;SDS011;65;48.778;9.160;2023-02-03T05:49:06;2.80;;;1.42;;
140;SDS011;65;48.778;9.160;2023-02-03T05:51:52;2.30;;;1.10;;
140;SDS011;65;48.778;9.160;2023-02-03T05:54:39;2.85;;;1.13;;
140;SDS011;65;48.778;9.160;2023-02-03T05:57:25;1.73;;;1.10;;
140;SDS011;65;48.778;9.160;2023-02-03T06:00:11;0.98;;;0.93;;
140;SDS011;65;48.778;9.160;2023-02-03T06:02:58;1.10;;;0.93;;
140;SDS011;65;48.778;9.160;2023-02-03T06:05:46;2.53;;;1.30;;
140;SDS011;65;48.778;9.160;2023-02-03T06:08:32;5.38;;;2.22;;
140;SDS011;65;48.778;9.160;2023-02-03T06:11:17;4.20;;;2.50;;
140;SDS011;65;48.778;9.160;2023-02-03T06:14:03;3.83;;;2.03;;
140;SDS011;65;48.778;9.160;2023-02-03T06:16:49;2.15;;;1.10;;
140;SDS011;65;48.778;9.160;2023-02-03T06:19:35;1.95;;;1.10;;
140;SDS011;65;48.778;9.160;2023-02-03T06:22:20;1.80;;;1.30;;
140;SDS011;65;48.778;9.160;2023-02-03T06:25:06;4.38;;;1.50;;
140;SDS011;65;48.778;9.160;2023-02-03T06:27:52;2.15;;;1.40;;
140;SDS011;65;48.778;9.160;2023-02-03T06:30:38;1.92;;;1.30;;
140;SDS011;65;48.778;9.160;2023-02-03T06:33:24;2.35;;;1.20;;
140;SDS011;65;48.778;9.160;2023-02-03T06:36:09;1.98;;;1.40;;
140;SDS011;65;48.778;9.160;2023-02-03T06:38:55;2.60;;;1.40;;
140;SDS011;65;48.778;9.160;2023-02-03T06:41:42;2.92;;;1.25;;
140;SDS011;65;48.778;9.160;2023-02-03T06:44:28;6.15;;;1.55;;
140;SDS011;65;48.778;9.160;2023-02-03T06:47:14;2.53;;;1.38;;
140;SDS011;65;48.778;9.160;2023-02-03T06:49:39;5.50;;;1.60;;
140;SDS011;65;48.778;9.160;2023-02-03T06:52:04;1.95;;;1.20;;
140;SDS011;65;48.778;9.160;2023-02-03T06:54:30;2.75;;;1.38;;
140;SDS011;65;48.778;9.160;2023-02-03T06:56:55;2.58;;;1.40;;
140;SDS011;65;48.778;9.160;2023-02-03T06:59:20;3.97;;;1.30;;
140;SDS011;65;48.778;9.160;2023-02-03T07:01:46;5.53;;;1.50;;
140;SDS011;65;48.778;9.160;2023-02-03T07:04:11;1.85;;;1.40;;
140;SDS011;65;48.778;9.160;2023-02-03T07:06:37;2.20;;;1.35;;
140;SDS011;65;48.778;9.160;2023-02-03T07:09:03;4.72;;;1.50;;
140;SDS011;65;48.778;9.160;2023-02-03T07:11:29;5.10;;;1.52;;
140;SDS011;65;48.778;9.160;2023-02-03T07:13:56;3.85;;;1.60;;
140;SDS011;65;48.778;9.160;2023-02-03T07:16:22;1.67;;;1.25;;
140;SDS011;65;48.778;9.160;2023-02-03T07:18:48;5.60;;;1.48;;
140;SDS011;65;48.778;9.160;2023-02-03T07:21:15;2.72;;;1.60;;
140;SDS011;65;48.778;9.160;2023-02-03T07:23:41;2.45;;;1.40;;
140;SDS011;65;48.778;9.160;2023-02-03T07:26:07;4.00;;;1.92;;
140;SDS011;65;48.778;9.160;2023-02-03T07:28:34;4.22;;;1.50;;
140;SDS011;65;48.778;9.160;2023-02-03T07:31:00;2.72;;;1.42;;
140;SDS011;65;48.778;9.160;2023-02-03T07:33:28;3.35;;;1.52;;
140;SDS011;65;48.778;9.160;2023-02-03T07:35:58;3.60;;;1.63;;
140;SDS011;65;48.778;9.160;2023-02-03T07:38:24;3.10;;;1.60;;
140;SDS011;65;48.778;9.160;2023-02-03T07:40:51;2.65;;;1.70;;
140;SDS011;65;48.778;9.160;2023-02-03T07:43:17;2.13;;;1.38;;
140;SDS011;65;48.778;9.160;2023-02-03T07:45:43;3.50;;;1.77;;
140;SDS011;65;48.778;9.160;2023-02-03T07:48:09;5.80;;;2.10;;
140;SDS011;65;48.778;9.160;2023-02-03T07:50:35;4.38;;;1.98;;
140;SDS011;65;48.778;9.160;2023-02-03T07:53:01;4.25;;;1.90;;
140;SDS011;65;48.778;9.160;2023-02-03T07:55:27;5.47;;;2.30;;
140;SDS011;65;48.778;9.160;2023-02-03T07:57:53;5.35;;;1.98;;
140;SDS011;65;48.778;9.160;2023-02-03T08:00:22;3.72;;;1.85;;
140;SDS011;65;48.778;9.160;2023-02-03T08:02:48;3.97;;;1.85;;
140;SDS011;65;48.778;9.160;2023-02-03T08:05:14;5.53;;;2.00;;
140;SDS011;65;48.778;9.160;2023-02-03T08:07:40;6.68;;;1.90;;
140;SDS011;65;48.778;9.160;2023-02-03T08:10:25;4.78;;;2.15;;
140;SDS011;65;48.778;9.160;2023-02-03T08:13:10;3.72;;;2.00;;
140;SDS011;65;48.778;9.160;2023-02-03T08:15:35;5.88;;;2.25;;
140;SDS011;65;48.778;9.160;2023-02-03T08:18:00;4.70;;;2.22;;
140;SDS011;65;48.778;9.160;2023-02-03T08:20:26;9.50;;;2.30;;
140;SDS011;65;48.778;9.160;2023-02-03T08:22:51;4.35;;;2.28;;
140;SDS011;65;48.778;9.160;2023-02-03T08:25:17;6.68;;;2.50;;
140;SDS011;65;48.778;9.160;2023-02-03T08:27:42;4.38;;;2.30;;
140;SDS011;65;48.778;9.160;2023-02-03T08:30:09;5.88;;;2.50;;
140;SDS011;65;48.778;9.160;2023-02-03T08:32:36;5.40;;;2.10;;
140;SDS011;65;48.778;9.160;2023-02-03T08:35:02;5.57;;;2.38;;
140;SDS011;65;48.778;9.160;2023-02-03T08:37:28;4.68;;;2.28;;
140;SDS011;65;48.778;9.160;2023-02-03T08:39:56;4.78;;;2.30;;
140;SDS011;65;48.778;9.160;2023-02-03T08:42:21;4.32;;;2.22;;
140;SDS011;65;48.778;9.160;2023-02-03T08:44:47;5.22;;;2.50;;
140;SDS011;65;48.778;9.160;2023-02-03T08:47:13;6.28;;;2.58;;
140;SDS011;65;48.778;9.160;2023-02-03T08:49:39;5.63;;;2.38;;
140;SDS011;65;48.778;9.160;2023-02-03T08:52:07;8.02;;;2.58;;
140;SDS011;65;48.778;9.160;2023-02-03T08:54:34;6.00;;;2.30;;
140;SDS011;65;48.778;9.160;2023-02-03T08:57:00;4.55;;;2.10;;
140;SDS011;65;48.778;9.160;2023-02-03T08:59:25;5.30;;;2.10;;
140;SDS011;65;48.778;9.160;2023-02-03T09:01:51;6.85;;;2.70;;
140;SDS011;65;48.778;9.160;2023-02-03T09:04:17;5.20;;;2.38;;
140;SDS011;65;48.778;9.160;2023-02-03T09:06:48;7.10;;;2.90;;
140;SDS011;65;48.778;9.160;2023-02-03T09:09:14;5.65;;;2.92;;
140;SDS011;65;48.778;9.160;2023-02-03T09:11:40;4.53;;;2.70;;
140;SDS011;65;48.778;9.160;2023-02-03T09:14:06;6.80;;;3.05;;
140;SDS011;65;48.778;9.160;2023-02-03T09:16:32;7.22;;;2.67;;
140;SDS011;65;48.778;9.160;2023-02-03T09:18:57;7.40;;;3.10;;
140;SDS011;65;48.778;9.160;2023-02-03T09:21:23;5.70;;;2.70;;
140;SDS011;65;48.778;9.160;2023-02-03T09:23:48;5.13;;;2.42;;
140;SDS011;65;48.778;9.160;2023-02-03T09:26:15;5.15;;;2.80;;
140;SDS011;65;48.778;9.160;2023-02-03T09:28:41;6.13;;;2.92;;
140;SDS011;65;48.778;9.160;2023-02-03T09:31:13;4.82;;;2.15;;
140;SDS011;65;48.778;9.160;2023-02-03T09:33:42;5.68;;;2.33;;
140;SDS011;65;48.778;9.160;2023-02-03T09:36:08;4.82;;;1.83;;
140;SDS011;65;48.778;9.160;2023-02-03T09:38:34;6.50;;;2.80;;
140;SDS011;65;48.778;9.160;2023-02-03T09:43:40;5.93;;;2.33;;
140;SDS011;65;48.778;9.160;2023-02-03T09:49:17;5.50;;;2.15;;
140;SDS011;65;48.778;9.160;2023-02-03T09:51:58;6.75;;;2.17;;
140;SDS011;65;48.778;9.160;2023-02-03T09:56:56;4.32;;;2.20;;
140;SDS011;65;48.778;9.160;2023-02-03T09:59:24;5.90;;;2.17;;
140;SDS011;65;48.778;9.160;2023-02-03T10:04:36;4.60;;;2.40;;
140;SDS011;65;48.778;9.160;2023-02-03T10:09:52;6.07;;;1.80;;
140;SDS011;65;48.778;9.160;2023-02-03T10:15:19;3.88;;;1.88;;
140;SDS011;65;48.778;9.160;2023-02-03T10:18:01;4.13;;;1.95;;
140;SDS011;65;48.778;9.160;2023-02-03T10:23:04;4.53;;;1.90;;
140;SDS011;65;48.778;9.160;2023-02-03T10:25:39;3.83;;;1.70;;
140;SDS011;65;48.778;9.160;2023-02-03T10:28:09;4.85;;;1.85;;
140;SDS011;65;48.778;9.160;2023-02-03T10:30:43;6.13;;;2.60;;
140;SDS011;65;48.778;9.160;2023-02-03T10:33:13;4.25;;;1.73;;
140;SDS011;65;48.778;9.160;2023-02-03T10:35:51;4.38;;;1.70;;
140;SDS011;65;48.778;9.160;2023-02-03T10:38:20;3.50;;;1.48;;
140;SDS011;65;48.778;9.160;2023-02-03T10:41:00;2.22;;;1.55;;
140;SDS011;65;48.778;9.160;2023-02-03T10:43:27;1.80;;;1.35;;
140;SDS011;65;48.778;9.160;2023-02-03T10:46:14;4.28;;;2.10;;
140;SDS011;65;48.778;9.160;2023-02-03T10:48:41;4.18;;;1.80;;
140;SDS011;65;48.778;9.160;2023-02-03T10:51:15;2.60;;;1.17;;
140;SDS011;65;48.778;9.160;2023-02-03T10:53:50;2.97;;;1.52;;
140;SDS011;65;48.778;9.160;2023-02-03T10:56:23;2.65;;;1.38;;
140;SDS011;65;48.778;9.160;2023-02-03T10:58:54;2.70;;;1.40;;
140;SDS011;65;48.778;9.160;2023-02-03T11:01:26;2.45;;;1.27;;
140;SDS011;65;48.778;9.160;2023-02-03T11:04:05;1.35;;;0.90;;
140;SDS011;65;48.778;9.160;2023-02-03T11:06:56;1.48;;;1.02;;
140;SDS011;65;48.778;9.160;2023-02-03T11:09:43;1.73;;;1.08;;
140;SDS011;65;48.778;9.160;2023-02-03T11:14:38;2.47;;;0.82;;
140;SDS011;65;48.778;9.160;2023-02-03T11:17:07;2.53;;;0.80;;
140;SDS011;65;48.778;9.160;2023-02-03T11:19:38;1.60;;;1.02;;
140;SDS011;65;48.778;9.160;2023-02-03T11:22:04;1.73;;;0.80;;
140;SDS011;65;48.778;9.160;2023-02-03T11:24:30;1.75;;;0.70;;
140;SDS011;65;48.778;9.160;2023-02-03T11:29:35;3.88;;;1.60;;
140;SDS011;65;48.778;9.160;2023-02-03T11:32:13;1.90;;;1.08;;
140;SDS011;65;48.778;9.160;2023-02-03T11:34:39;2.63;;;1.02;;
140;SDS011;65;48.778;9.160;2023-02-03T11:37:28;1.23;;;0.95;;
140;SDS011;65;48.778;9.160;2023-02-03T11:39:56;3.67;;;1.13;;
140;SDS011;65;48.778;9.160;2023-02-03T11:42:40;1.83;;;0.90;;
140;SDS011;65;48.778;9.160;2023-02-03T11:47:56;1.42;;;0.75;;
140;SDS011;65;48.778;9.160;2023-02-03T11:59:02;1.60;;;0.77;;
140;SDS011;65;48.778;9.160;2023-02-03T12:12:57;1.10;;;0.90;;
140;SDS011;65;48.778;9.160;2023-02-03T12:29:39;1.08;;;0.80;;
140;SDS011;65;48.778;9.160;2023-02-03T12:34:47;1.42;;;0.82;;
140;SDS011;65;48.778;9.160;2023-02-03T12:37:27;1.77;;;0.60;;
140;SDS011;65;48.778;9.160;2023-02-03T12:47:57;0.90;;;0.70;;
140;SDS011;65;48.778;9.160;2023-02-03T12:50:38;2.10;;;0.80;;
140;SDS011;65;48.778;9.160;2023-02-03T12:53:13;0.60;;;0.60;;
140;SDS011;65;48.778;9.160;2023-02-03T12:55:42;1.25;;;0.88;;
140;SDS011;65;48.778;9.160;2023-02-03T12:58:24;1.52;;;0.70;;
140;SDS011;65;48.778;9.160;2023-02-03T13:00:56;2.78;;;1.00;;
140;SDS011;65;48.778;9.160;2023-02-03T13:03:26;0.88;;;0.60;;
140;SDS011;65;48.778;9.160;2023-02-03T13:09:02;2.50;;;0.80;;
140;SDS011;65;48.778;9.160;2023-02-03T13:14:41;0.80;;;0.80;;
140;SDS011;65;48.778;9.160;2023-02-03T13:19:47;1.15;;;0.85;;
140;SDS011;65;48.778;9.160;2023-02-03T13:22:16;1.10;;;0.90;;
140;SDS011;65;48.778;9.160;2023-02-03T13:24:57;4.20;;;1.23;;
140;SDS011;65;48.778;9.160;2023-02-03T13:33:06;1.58;;;0.60;;
140;SDS011;65;48.778;9.160;2023-02-03T13:35:50;1.25;;;0.82;;
140;SDS011;65;48.778;9.160;2023-02-03T13:41:55;4.22;;;1.00;;
140;SDS011;65;48.778;9.160;2023-02-03T13:44:37;0.95;;;0.70;;
140;SDS011;65;48.778;9.160;2023-02-03T13:47:04;2.20;;;0.73;;
140;SDS011;65;48.778;9.160;2023-02-03T13:49:38;0.98;;;0.68;;
140;SDS011;65;48.778;9.160;2023-02-03T13:55:28;1.77;;;0.90;;
140;SDS011;65;48.778;9.160;2023-02-03T13:58:06;1.05;;;0.90;;
140;SDS011;65;48.778;9.160;2023-02-03T14:03:20;3.00;;;1.10;;
140;SDS011;65;48.778;9.160;2023-02-03T14:06:03;1.85;;;1.00;;
140;SDS011;65;48.778;9.160;2023-02-03T14:16:34;2.60;;;0.63;;
140;SDS011;65;48.778;9.160;2023-02-03T14:19:00;3.33;;;1.00;;
140;SDS011;65;48.778;9.160;2023-02-03T14:21:26;0.65;;;0.60;;
140;SDS011;65;48.778;9.160;2023-02-03T14:24:04;1.75;;;0.68;;
140;SDS011;65;48.778;9.160;2023-02-03T14:26:41;2.17;;;1.00;;
140;SDS011;65;48.778;9.160;2023-02-03T14:29:09;0.90;;;0.70;;
140;SDS011;65;48.778;9.160;2023-02-03T14:31:55;0.50;;;0.47;;
140;SDS011;65;48.778;9.160;2023-02-03T14:34:26;1.25;;;0.80;;
140;SDS011;65;48.778;9.160;2023-02-03T14:36:53;1.73;;;0.70;;
140;SDS011;65;48.778;9.160;2023-02-03T14:44:43;0.63;;;0.50;;
140;SDS011;65;48.778;9.160;2023-02-03T14:58:01;0.52;;;0.50;;
140;SDS011;65;48.778;9.160;2023-02-03T15:00:31;1.33;;;0.70;;
140;SDS011;65;48.778;9.160;2023-02-03T15:07:58;0.50;;;0.47;;
140;SDS011;65;48.778;9.160;2023-02-03T15:10:39;1.58;;;0.88;;
140;SDS011;65;48.778;9.160;2023-02-03T15:15:52;1.10;;;0.70;;
140;SDS011;65;48.778;9.160;2023-02-03T15:21:39;2.38;;;0.95;;
140;SDS011;65;48.778;9.160;2023-02-03T15:24:13;2.10;;;0.90;;
140;SDS011;65;48.778;9.160;2023-02-03T15:26:46;0.65;;;0.55;;
140;SDS011;65;48.778;9.160;2023-02-03T15:29:20;1.05;;;0.88;;
140;SDS011;65;48.778;9.160;2023-02-03T15:31:56;0.95;;;0.70;;
140;SDS011;65;48.778;9.160;2023-02-03T15:34:31;1.38;;;0.50;;
140;SDS011;65;48.778;9.160;2023-02-03T15:37:01;1.23;;;0.85;;
140;SDS011;65;48.778;9.160;2023-02-03T15:51:06;1.85;;;0.73;;
140;SDS011;65;48.778;9.160;2023-02-03T15:53:41;0.93;;;0.80;;
140;SDS011;65;48.778;9.160;2023-02-03T15:56:10;0.60;;;0.60;;
140;SDS011;65;48.778;9.160;2023-02-03T15:58:44;1.25;;;0.60;;
140;SDS011;65;48.778;9.160;2023-02-03T16:01:11;1.85;;;1.10;;
140;SDS011;65;48.778;9.160;2023-02-03T16:03:45;0.88;;;0.70;;
140;SDS011;65;48.778;9.160;2023-02-03T16:06:31;2.65;;;0.70;;
140;SDS011;65;48.778;9.160;2023-02-03T16:09:02;2.05;;;1.05;;
140;SDS011;65;48.778;9.160;2023-02-03T16:13:56;1.05;;;0.80;;
140;SDS011;65;48.778;9.160;2023-02-03T16:19:01;1.65;;;0.85;;
140;SDS011;65;48.778;9.160;2023-02-03T16:21:30;3.17;;;1.08;;
140;SDS011;65;48.778;9.160;2023-02-03T16:23:59;0.68;;;0.68;;
140;SDS011;65;48.778;9.160;2023-02-03T16:26:25;2.00;;;1.10;;
140;SDS011;65;48.778;9.160;2023-02-03T16:31:53;1.75;;;0.77;;
140;SDS011;65;48.778;9.160;2023-02-03T16:34:37;1.80;;;0.93;;
140;SDS011;65;48.778;9.160;2023-02-03T16:40:06;1.25;;;1.00;;
140;SDS011;65;48.778;9.160;2023-02-03T16:42:50;1.15;;;0.93;;
140;SDS011;65;48.778;9.160;2023-02-03T16:45:35;1.25;;;0.85;;
140;SDS011;65;48.778;9.160;2023-02-03T16:48:19;1.10;;;1.00;;
140;SDS011;65;48.778;9.160;2023-02-03T16:51:04;1.30;;;1.00;;
140;SDS011;65;48.778;9.160;2023-02-03T16:53:34;2.25;;;1.30;;
140;SDS011;65;48.778;9.160;2023-02-03T16:56:01;1.27;;;0.65;;
140;SDS011;65;48.778;9.160;2023-02-03T16:58:28;2.55;;;0.90;;
140;SDS011;65;48.778;9.160;2023-02-03T17:00:54;1.80;;;1.00;;
140;SDS011;65;48.778;9.160;2023-02-03T17:03:24;1.48;;;0.93;;
140;SDS011;65;48.778;9.160;2023-02-03T17:05:51;1.83;;;0.93;;
140;SDS011;65;48.778;9.160;2023-02-03T17:08:18;1.83;;;1.00;;
140;SDS011;65;48.778;9.160;2023-02-03T17:10:46;1.05;;;0.90;;
140;SDS011;65;48.778;9.160;2023-02-03T17:13:12;1.65;;;1.17;;
140;SDS011;65;48.778;9.160;2023-02-03T17:15:42;1.30;;;0.90;;
140;SDS011;65;48.778;9.160;2023-02-03T17:18:14;1.20;;;1.00;;
140;SDS011;65;48.778;9.160;2023-02-03T17:20:40;2.25;;;1.30;;
140;SDS011;65;48.778;9.160;2023-02-03T17:23:07;1.80;;;1.10;;
140;SDS011;65;48.778;9.160;2023-02-03T17:25:34;0.80;;;0.80;;
140;SDS011;65;48.778;9.160;2023-02-03T17:28:01;1.20;;;0.85;;
140;SDS011;65;48.778;9.160;2023-02-03T17:30:30;1.00;;;0.90;;
140;SDS011;65;48.778;9.160;2023-02-03T17:33:02;1.13;;;1.00;;
140;SDS011;65;48.778;9.160;2023-02-03T17:35:35;1.00;;;1.00;;
140;SDS011;65;48.778;9.160;2023-02-03T17:38:01;1.45;;;1.15;;
140;SDS011;65;48.778;9.160;2023-02-03T17:40:26;1.20;;;1.10;;
140;SDS011;65;48.778;9.160;2023-02-03T17:42:52;2.05;;;1.30;;
140;SDS011;65;48.778;9.160;2023-02-03T17:48:22;1.65;;;1.10;;
140;SDS011;65;48.778;9.160;2023-02-03T17:50:47;1.33;;;0.95;;
140;SDS011;65;48.778;9.160;2023-02-03T17:53:12;3.75;;;1.55;;
140;SDS011;65;48.778;9.160;2023-02-03T17:58:55;1.48;;;0.90;;
140;SDS011;65;48.778;9.160;2023-02-03T18:01:22;1.33;;;1.10;;
140;SDS011;65;48.778;9.160;2023-02-03T18:03:50;1.30;;;1.02;;
140;SDS011;65;48.778;9.160;2023-02-03T18:06:18;1.52;;;1.02;;
140;SDS011;65;48.778;9.160;2023-02-03T18:08:45;2.30;;;1.20;;
140;SDS011;65;48.778;9.160;2023-02-03T18:11:12;1.08;;;0.93;;
140;SDS011;65;48.778;9.160;2023-02-03T18:13:39;2.50;;;1.30;;
140;SDS011;65;48.778;9.160;2023-02-03T18:16:07;1.60;;;1.10;;
140;SDS011;65;48.778;9.160;2023-02-03T18:18:36;2.08;;;1.23;;
140;SDS011;65;48.778;9.160;2023-02-03T18:21:06;1.65;;;1.20;;
140;SDS011;65;48.778;9.160;2023-02-03T18:23:34;1.00;;;1.00;;
140;SDS011;65;48.778;9.160;2023-02-03T18:26:00;1.58;;;1.20;;
140;SDS011;65;48.778;9.160;2023-02-03T18:28:26;1.92;;;1.13;;
140;SDS011;65;48.778;9.160;2023-02-03T18:30:56;2.42;;;1.50;;
140;SDS011;65;48.778;9.160;2023-02-03T18:33:27;1.63;;;1.20;;
140;SDS011;65;48.778;9.160;2023-02-03T18:35:54;1.30;;;1.20;;
140;SDS011;65;48.778;9.160;2023-02-03T18:38:20;0.88;;;0.68;;
140;SDS011;65;48.778;9.160;2023-02-03T18:40:46;1.05;;;0.95;;
140;SDS011;65;48.778;9.160;2023-02-03T18:43:11;1.48;;;1.00;;
140;SDS011;65;48.778;9.160;2023-02-03T18:45:37;2.83;;;1.60;;
140;SDS011;65;48.778;9.160;2023-02-03T18:48:02;1.77;;;1.30;;
140;SDS011;65;48.778;9.160;2023-02-03T18:50:28;1.30;;;1.20;;
140;SDS011;65;48.778;9.160;2023-02-03T18:52:53;1.60;;;1.20;;
140;SDS011;65;48.778;9.160;2023-02-03T18:55:20;1.38;;;1.23;;
140;SDS011;65;48.778;9.160;2023-02-03T18:57:45;2.40;;;1.30;;
140;SDS011;65;48.778;9.160;2023-02-03T19:00:11;1.70;;;1.23;;
140;SDS011;65;48.778;9.160;2023-02-03T19:02:38;2.47;;;1.35;;
140;SDS011;65;48.778;9.160;2023-02-03T19:05:04;2.85;;;1.50;;
140;SDS011;65;48.778;9.160;2023-02-03T19:07:30;2.08;;;1.48;;
140;SDS011;65;48.778;9.160;2023-02-03T19:09:56;1.83;;;1.30;;
140;SDS011;65;48.778;9.160;2023-02-03T19:12:21;2.22;;;1.40;;
140;SDS011;65;48.778;9.160;2023-02-03T19:14:49;1.85;;;1.40;;
140;SDS011;65;48.778;9.160;2023-02-03T19:17:14;1.80;;;1.40;;
140;SDS011;65;48.778;9.160;2023-02-03T19:19:40;2.85;;;1.67;;
140;SDS011;65;48.778;9.160;2023-02-03T19:22:05;2.53;;;1.50;;
140;SDS011;65;48.778;9.160;2023-02-03T19:24:31;2.67;;;1.63;;
140;SDS011;65;48.778;9.160;2023-02-03T19:26:56;1.92;;;1.20;;
140;SDS011;65;48.778;9.160;2023-02-03T19:29:22;1.75;;;1.13;;
140;SDS011;65;48.778;9.160;2023-02-03T19:31:47;2.00;;;1.30;;
140;SDS011;65;48.778;9.160;2023-02-03T19:34:13;1.88;;;1.17;;
140;SDS011;65;48.778;9.160;2023-02-03T19:36:40;2.53;;;1.55;;
140;SDS011;65;48.778;9.160;2023-02-03T19:39:05;2.20;;;1.35;;
140;SDS011;65;48.778;9.160;2023-02-03T19:41:31;2.05;;;1.35;;
140;SDS011;65;48.778;9.160;2023-02-03T19:44:00;1.77;;;1.45;;
140;SDS011;65;48.778;9.160;2023-02-03T19:46:27;2.15;;;1.20;;
140;SDS011;65;48.778;9.160;2023-02-03T19:48:55;1.98;;;1.40;;
140;SDS011;65;48.778;9.160;2023-02-03T19:51:21;2.05;;;1.48;;
140;SDS011;65;48.778;9.160;2023-02-03T19:53:48;1.42;;;1.30;;
140;SDS011;65;48.778;9.160;2023-02-03T19:56:14;1.83;;;1.40;;
140;SDS011;65;48.778;9.160;2023-02-03T19:58:39;2.90;;;1.30;;